sensor_id;sensor_type;location;lat;lon;timestamp;temperature;humidity
13798;DHT22;6970;51.340;3.240;2023-05-21T00:01:19;14.30;99.90
13798;DHT22;6970;51.340;3.240;2023-05-21T00:03:49;14.30;99.90
13798;DHT22;6970;51.340;3.240;2023-05-21T00:06:17;14.40;99.90
13798;DHT22;6970;51.340;3.240;2023-05-21T00:08:46;14.30;99.90
13798;DHT22;6970;51.340;3.240;2023-05-21T00:11:15;14.30;99.90
13798;DHT22;6970;51.340;3.240;2023-05-21T00:13:42;14.40;99.90
13798;DHT22;6970;51.340;3.240;2023-05-21T00:16:11;14.40;99.90
13798;DHT22;6970;51.340;3.240;2023-05-21T00:18:38;14.30;99.90
13798;DHT22;6970;51.340;3.240;2023-05-21T00:21:07;14.30;99.90
13798;DHT22;6970;51.340;3.240;2023-05-21T00:23:35;14.30;99.90
13798;DHT22;6970;51.340;3.240;2023-05-21T00:26:04;14.30;99.90
13798;DHT22;6970;51.340;3.240;2023-05-21T00:28:34;14.30;99.90
13798;DHT22;6970;51.340;3.240;2023-05-21T00:31:10;14.30;99.90
13798;DHT22;6970;51.340;3.240;2023-05-21T00:33:37;14.30;99.90
13798;DHT22;6970;51.340;3.240;2023-05-21T00:36:07;14.30;99.90
13798;DHT22;6970;51.340;3.240;2023-05-21T00:38:41;14.30;99.90
13798;DHT22;6970;51.340;3.240;2023-05-21T00:41:13;14.30;99.90
13798;DHT22;6970;51.340;3.240;2023-05-21T00:43:45;14.30;99.90
13798;DHT22;6970;51.340;3.240;2023-05-21T00:46:17;14.30;99.90
13798;DHT22;6970;51.340;3.240;2023-05-21T00:48:47;14.30;99.90
13798;DHT22;6970;51.340;3.240;2023-05-21T00:51:19;14.30;99.90
13798;DHT22;6970;51.340;3.240;2023-05-21T00:53:50;14.20;99.90
13798;DHT22;6970;51.340;3.240;2023-05-21T00:56:20;14.20;99.90
13798;DHT22;6970;51.340;3.240;2023-05-21T00:58:53;14.20;99.90
13798;DHT22;6970;51.340;3.240;2023-05-21T01:01:27;14.20;99.90
13798;DHT22;6970;51.340;3.240;2023-05-21T01:04:05;14.20;99.90
13798;DHT22;6970;51.340;3.240;2023-05-21T01:06:35;14.20;99.90
13798;DHT22;6970;51.340;3.240;2023-05-21T01:09:09;14.20;99.90
13798;DHT22;6970;51.340;3.240;2023-05-21T01:11:47;14.20;99.90
13798;DHT22;6970;51.340;3.240;2023-05-21T01:14:18;14.20;99.90
13798;DHT22;6970;51.340;3.240;2023-05-21T01:16:49;14.20;99.90
13798;DHT22;6970;51.340;3.240;2023-05-21T01:19:22;14.20;99.90
13798;DHT22;6970;51.340;3.240;2023-05-21T01:22:04;14.20;99.90
13798;DHT22;6970;51.340;3.240;2023-05-21T01:24:31;14.10;99.90
13798;DHT22;6970;51.340;3.240;2023-05-21T01:27:02;14.10;99.90
13798;DHT22;6970;51.340;3.240;2023-05-21T01:29:32;14.10;99.90
13798;DHT22;6970;51.340;3.240;2023-05-21T01:35:10;14.10;99.90
13798;DHT22;6970;51.340;3.240;2023-05-21T01:40:59;14.10;99.90
13798;DHT22;6970;51.340;3.240;2023-05-21T01:43:38;14.10;99.90
13798;DHT22;6970;51.340;3.240;2023-05-21T01:46:08;14.10;99.90
13798;DHT22;6970;51.340;3.240;2023-05-21T01:48:37;14.00;99.90
13798;DHT22;6970;51.340;3.240;2023-05-21T01:51:08;14.00;99.90
13798;DHT22;6970;51.340;3.240;2023-05-21T01:53:37;14.00;99.90
13798;DHT22;6970;51.340;3.240;2023-05-21T01:56:07;14.00;99.90
13798;DHT22;6970;51.340;3.240;2023-05-21T01:58:43;14.00;99.90
13798;DHT22;6970;51.340;3.240;2023-05-21T02:01:28;14.00;99.90
13798;DHT22;6970;51.340;3.240;2023-05-21T02:03:57;14.00;99.90
13798;DHT22;6970;51.340;3.240;2023-05-21T02:06:25;14.00;99.90
13798;DHT22;6970;51.340;3.240;2023-05-21T02:08:55;14.00;99.90
13798;DHT22;6970;51.340;3.240;2023-05-21T02:11:25;14.00;99.90
13798;DHT22;6970;51.340;3.240;2023-05-21T02:14:05;13.90;99.90
13798;DHT22;6970;51.340;3.240;2023-05-21T02:16:36;13.90;99.90
13798;DHT22;6970;51.340;3.240;2023-05-21T02:19:07;13.90;99.90
13798;DHT22;6970;51.340;3.240;2023-05-21T02:21:36;13.90;99.90
13798;DHT22;6970;51.340;3.240;2023-05-21T02:24:03;13.90;99.90
13798;DHT22;6970;51.340;3.240;2023-05-21T02:26:32;13.90;99.90
13798;DHT22;6970;51.340;3.240;2023-05-21T02:29:02;13.90;99.90
13798;DHT22;6970;51.340;3.240;2023-05-21T02:31:32;13.90;99.90
13798;DHT22;6970;51.340;3.240;2023-05-21T02:34:00;13.90;99.90
13798;DHT22;6970;51.340;3.240;2023-05-21T02:36:30;13.90;99.90
13798;DHT22;6970;51.340;3.240;2023-05-21T02:38:59;13.80;99.90
13798;DHT22;6970;51.340;3.240;2023-05-21T02:41:27;13.80;99.90
13798;DHT22;6970;51.340;3.240;2023-05-21T02:43:57;13.80;99.90
13798;DHT22;6970;51.340;3.240;2023-05-21T02:46:27;13.80;99.90
13798;DHT22;6970;51.340;3.240;2023-05-21T02:48:57;13.80;99.90
13798;DHT22;6970;51.340;3.240;2023-05-21T02:51:28;13.80;99.90
13798;DHT22;6970;51.340;3.240;2023-05-21T02:53:57;13.80;99.90
13798;DHT22;6970;51.340;3.240;2023-05-21T02:56:26;13.80;99.90
13798;DHT22;6970;51.340;3.240;2023-05-21T02:58:58;13.80;99.90
13798;DHT22;6970;51.340;3.240;2023-05-21T03:01:28;13.70;99.90
13798;DHT22;6970;51.340;3.240;2023-05-21T03:03:56;13.70;99.90
13798;DHT22;6970;51.340;3.240;2023-05-21T03:06:24;13.70;99.90
13798;DHT22;6970;51.340;3.240;2023-05-21T03:08:54;13.70;99.90
13798;DHT22;6970;51.340;3.240;2023-05-21T03:11:25;13.70;99.90
13798;DHT22;6970;51.340;3.240;2023-05-21T03:13:54;13.70;99.90
13798;DHT22;6970;51.340;3.240;2023-05-21T03:16:21;13.70;99.90
13798;DHT22;6970;51.340;3.240;2023-05-21T03:18:51;13.60;99.90
13798;DHT22;6970;51.340;3.240;2023-05-21T03:21:19;13.60;99.90
13798;DHT22;6970;51.340;3.240;2023-05-21T03:23:51;13.60;99.90
13798;DHT22;6970;51.340;3.240;2023-05-21T03:26:21;13.60;99.90
13798;DHT22;6970;51.340;3.240;2023-05-21T03:28:50;13.60;99.90
13798;DHT22;6970;51.340;3.240;2023-05-21T03:31:21;13.60;99.90
13798;DHT22;6970;51.340;3.240;2023-05-21T03:33:50;13.60;99.90
13798;DHT22;6970;51.340;3.240;2023-05-21T03:36:19;13.60;99.90
13798;DHT22;6970;51.340;3.240;2023-05-21T03:38:46;13.60;99.90
13798;DHT22;6970;51.340;3.240;2023-05-21T03:41:13;13.60;99.90
13798;DHT22;6970;51.340;3.240;2023-05-21T03:43:40;13.60;99.90
13798;DHT22;6970;51.340;3.240;2023-05-21T03:46:10;13.60;99.90
13798;DHT22;6970;51.340;3.240;2023-05-21T03:48:38;13.60;99.90
13798;DHT22;6970;51.340;3.240;2023-05-21T03:51:11;13.60;99.90
13798;DHT22;6970;51.340;3.240;2023-05-21T03:53:40;13.60;99.90
13798;DHT22;6970;51.340;3.240;2023-05-21T03:56:07;13.60;99.90
13798;DHT22;6970;51.340;3.240;2023-05-21T03:58:34;13.60;99.90
13798;DHT22;6970;51.340;3.240;2023-05-21T04:01:02;13.60;99.90
13798;DHT22;6970;51.340;3.240;2023-05-21T04:03:30;13.60;99.90
13798;DHT22;6970;51.340;3.240;2023-05-21T04:06:03;13.60;99.90
13798;DHT22;6970;51.340;3.240;2023-05-21T04:08:31;13.60;99.90
13798;DHT22;6970;51.340;3.240;2023-05-21T04:10:58;13.60;99.90
13798;DHT22;6970;51.340;3.240;2023-05-21T04:13:25;13.60;99.90
13798;DHT22;6970;51.340;3.240;2023-05-21T04:15:54;13.60;99.90
13798;DHT22;6970;51.340;3.240;2023-05-21T04:18:24;13.60;99.90
13798;DHT22;6970;51.340;3.240;2023-05-21T04:20:52;13.60;99.90
13798;DHT22;6970;51.340;3.240;2023-05-21T04:23:20;13.60;99.90
13798;DHT22;6970;51.340;3.240;2023-05-21T04:25:52;13.60;99.90
13798;DHT22;6970;51.340;3.240;2023-05-21T04:28:21;13.60;99.90
13798;DHT22;6970;51.340;3.240;2023-05-21T04:30:50;13.70;99.90
13798;DHT22;6970;51.340;3.240;2023-05-21T04:33:21;13.70;99.90
13798;DHT22;6970;51.340;3.240;2023-05-21T04:35:50;13.70;99.90
13798;DHT22;6970;51.340;3.240;2023-05-21T04:38:17;13.70;99.90
13798;DHT22;6970;51.340;3.240;2023-05-21T04:40:49;13.80;99.90
13798;DHT22;6970;51.340;3.240;2023-05-21T04:43:17;13.80;99.90
13798;DHT22;6970;51.340;3.240;2023-05-21T04:45:53;13.80;99.90
13798;DHT22;6970;51.340;3.240;2023-05-21T04:48:23;13.80;99.90
13798;DHT22;6970;51.340;3.240;2023-05-21T04:50:51;13.80;99.90
13798;DHT22;6970;51.340;3.240;2023-05-21T04:53:23;13.80;99.90
13798;DHT22;6970;51.340;3.240;2023-05-21T04:55:52;13.90;99.90
13798;DHT22;6970;51.340;3.240;2023-05-21T04:58:20;13.90;99.90
13798;DHT22;6970;51.340;3.240;2023-05-21T05:00:53;13.90;99.90
13798;DHT22;6970;51.340;3.240;2023-05-21T05:03:21;13.90;99.90
13798;DHT22;6970;51.340;3.240;2023-05-21T05:05:52;14.00;99.90
13798;DHT22;6970;51.340;3.240;2023-05-21T05:08:22;14.00;99.90
13798;DHT22;6970;51.340;3.240;2023-05-21T05:10:49;14.00;99.90
13798;DHT22;6970;51.340;3.240;2023-05-21T05:13:23;14.00;99.90
13798;DHT22;6970;51.340;3.240;2023-05-21T05:15:50;14.10;99.90
13798;DHT22;6970;51.340;3.240;2023-05-21T05:18:20;14.10;99.90
13798;DHT22;6970;51.340;3.240;2023-05-21T05:20:49;14.20;99.90
13798;DHT22;6970;51.340;3.240;2023-05-21T05:23:18;14.20;99.90
13798;DHT22;6970;51.340;3.240;2023-05-21T05:25:48;14.20;99.90
13798;DHT22;6970;51.340;3.240;2023-05-21T05:28:17;14.20;99.90
13798;DHT22;6970;51.340;3.240;2023-05-21T05:30:47;14.20;99.90
13798;DHT22;6970;51.340;3.240;2023-05-21T05:33:15;14.20;99.90
13798;DHT22;6970;51.340;3.240;2023-05-21T05:35:43;14.20;99.90
13798;DHT22;6970;51.340;3.240;2023-05-21T05:38:13;14.30;99.90
13798;DHT22;6970;51.340;3.240;2023-05-21T05:40:42;14.30;99.90
13798;DHT22;6970;51.340;3.240;2023-05-21T05:43:12;14.30;99.90
13798;DHT22;6970;51.340;3.240;2023-05-21T05:45:40;14.40;99.90
13798;DHT22;6970;51.340;3.240;2023-05-21T05:48:08;14.40;99.90
13798;DHT22;6970;51.340;3.240;2023-05-21T05:50:35;14.50;99.90
13798;DHT22;6970;51.340;3.240;2023-05-21T05:53:04;14.60;99.90
13798;DHT22;6970;51.340;3.240;2023-05-21T05:55:36;14.60;99.90
13798;DHT22;6970;51.340;3.240;2023-05-21T05:58:04;14.70;99.90
13798;DHT22;6970;51.340;3.240;2023-05-21T06:00:34;14.70;99.90
13798;DHT22;6970;51.340;3.240;2023-05-21T06:03:01;14.80;99.90
13798;DHT22;6970;51.340;3.240;2023-05-21T06:05:31;14.90;99.90
13798;DHT22;6970;51.340;3.240;2023-05-21T06:07:58;14.90;99.90
13798;DHT22;6970;51.340;3.240;2023-05-21T06:10:25;15.00;99.90
13798;DHT22;6970;51.340;3.240;2023-05-21T06:12:54;15.00;99.90
13798;DHT22;6970;51.340;3.240;2023-05-21T06:15:25;15.00;99.90
13798;DHT22;6970;51.340;3.240;2023-05-21T06:17:53;15.10;99.90
13798;DHT22;6970;51.340;3.240;2023-05-21T06:20:23;15.10;99.90
13798;DHT22;6970;51.340;3.240;2023-05-21T06:22:53;15.20;99.90
13798;DHT22;6970;51.340;3.240;2023-05-21T06:25:20;15.30;99.90
13798;DHT22;6970;51.340;3.240;2023-05-21T06:27:54;15.40;99.90
13798;DHT22;6970;51.340;3.240;2023-05-21T06:30:22;15.40;99.90
13798;DHT22;6970;51.340;3.240;2023-05-21T06:32:52;15.50;99.90
13798;DHT22;6970;51.340;3.240;2023-05-21T06:35:22;15.50;99.90
13798;DHT22;6970;51.340;3.240;2023-05-21T06:37:49;15.50;99.90
13798;DHT22;6970;51.340;3.240;2023-05-21T06:40:22;15.60;99.90
13798;DHT22;6970;51.340;3.240;2023-05-21T06:42:52;15.60;99.90
13798;DHT22;6970;51.340;3.240;2023-05-21T06:45:24;15.60;99.90
13798;DHT22;6970;51.340;3.240;2023-05-21T06:47:52;15.60;99.90
13798;DHT22;6970;51.340;3.240;2023-05-21T06:50:19;15.70;99.90
13798;DHT22;6970;51.340;3.240;2023-05-21T06:52:46;15.70;99.90
13798;DHT22;6970;51.340;3.240;2023-05-21T06:55:16;15.80;99.90
13798;DHT22;6970;51.340;3.240;2023-05-21T06:57:46;15.80;99.90
13798;DHT22;6970;51.340;3.240;2023-05-21T07:00:17;16.00;99.90
13798;DHT22;6970;51.340;3.240;2023-05-21T07:02:47;16.10;99.90
13798;DHT22;6970;51.340;3.240;2023-05-21T07:05:14;16.30;99.90
13798;DHT22;6970;51.340;3.240;2023-05-21T07:07:43;16.40;99.90
13798;DHT22;6970;51.340;3.240;2023-05-21T07:10:12;16.50;99.90
13798;DHT22;6970;51.340;3.240;2023-05-21T07:12:39;16.70;99.90
13798;DHT22;6970;51.340;3.240;2023-05-21T07:15:09;16.80;99.90
13798;DHT22;6970;51.340;3.240;2023-05-21T07:17:37;16.90;99.90
13798;DHT22;6970;51.340;3.240;2023-05-21T07:20:05;17.10;99.90
13798;DHT22;6970;51.340;3.240;2023-05-21T07:22:33;17.10;99.90
13798;DHT22;6970;51.340;3.240;2023-05-21T07:25:00;17.30;99.90
13798;DHT22;6970;51.340;3.240;2023-05-21T07:27:27;17.40;99.90
13798;DHT22;6970;51.340;3.240;2023-05-21T07:29:54;17.60;99.90
13798;DHT22;6970;51.340;3.240;2023-05-21T07:32:22;17.70;99.90
13798;DHT22;6970;51.340;3.240;2023-05-21T07:34:51;17.80;99.90
13798;DHT22;6970;51.340;3.240;2023-05-21T07:37:21;17.90;99.90
13798;DHT22;6970;51.340;3.240;2023-05-21T07:39:53;18.10;99.90
13798;DHT22;6970;51.340;3.240;2023-05-21T07:42:21;18.30;99.90
13798;DHT22;6970;51.340;3.240;2023-05-21T07:44:48;18.50;99.90
13798;DHT22;6970;51.340;3.240;2023-05-21T07:47:18;18.70;99.90
13798;DHT22;6970;51.340;3.240;2023-05-21T07:49:45;18.90;99.90
13798;DHT22;6970;51.340;3.240;2023-05-21T07:52:12;19.10;99.90
13798;DHT22;6970;51.340;3.240;2023-05-21T07:54:39;19.20;99.90
13798;DHT22;6970;51.340;3.240;2023-05-21T07:57:06;19.30;99.90
13798;DHT22;6970;51.340;3.240;2023-05-21T07:59:36;19.40;99.90
13798;DHT22;6970;51.340;3.240;2023-05-21T08:02:04;19.50;99.90
13798;DHT22;6970;51.340;3.240;2023-05-21T08:04:31;19.60;99.90
13798;DHT22;6970;51.340;3.240;2023-05-21T08:06:58;19.70;99.90
13798;DHT22;6970;51.340;3.240;2023-05-21T08:09:27;19.70;99.90
13798;DHT22;6970;51.340;3.240;2023-05-21T08:11:58;19.70;99.90
13798;DHT22;6970;51.340;3.240;2023-05-21T08:14:25;19.70;99.90
13798;DHT22;6970;51.340;3.240;2023-05-21T08:16:52;19.70;99.90
13798;DHT22;6970;51.340;3.240;2023-05-21T08:19:19;19.70;99.90
13798;DHT22;6970;51.340;3.240;2023-05-21T08:21:47;19.70;99.90
13798;DHT22;6970;51.340;3.240;2023-05-21T08:24:17;19.70;99.90
13798;DHT22;6970;51.340;3.240;2023-05-21T08:26:47;19.70;99.90
13798;DHT22;6970;51.340;3.240;2023-05-21T08:29:19;19.70;99.90
13798;DHT22;6970;51.340;3.240;2023-05-21T08:31:46;19.70;99.90
13798;DHT22;6970;51.340;3.240;2023-05-21T08:34:17;19.60;99.90
13798;DHT22;6970;51.340;3.240;2023-05-21T08:36:47;19.70;99.90
13798;DHT22;6970;51.340;3.240;2023-05-21T08:39:15;19.70;99.90
13798;DHT22;6970;51.340;3.240;2023-05-21T08:41:43;19.70;99.90
13798;DHT22;6970;51.340;3.240;2023-05-21T08:44:19;19.70;99.90
13798;DHT22;6970;51.340;3.240;2023-05-21T08:46:49;19.80;99.90
13798;DHT22;6970;51.340;3.240;2023-05-21T08:49:22;19.90;99.90
13798;DHT22;6970;51.340;3.240;2023-05-21T08:51:53;20.10;99.90
13798;DHT22;6970;51.340;3.240;2023-05-21T08:54:21;20.10;99.90
13798;DHT22;6970;51.340;3.240;2023-05-21T08:56:52;20.20;99.90
13798;DHT22;6970;51.340;3.240;2023-05-21T08:59:20;20.30;99.90
13798;DHT22;6970;51.340;3.240;2023-05-21T09:01:48;20.50;99.90
13798;DHT22;6970;51.340;3.240;2023-05-21T09:04:17;20.60;99.90
13798;DHT22;6970;51.340;3.240;2023-05-21T09:06:50;20.80;99.90
13798;DHT22;6970;51.340;3.240;2023-05-21T09:09:33;21.10;99.90
13798;DHT22;6970;51.340;3.240;2023-05-21T09:12:07;21.30;99.90
13798;DHT22;6970;51.340;3.240;2023-05-21T09:14:35;21.40;99.90
13798;DHT22;6970;51.340;3.240;2023-05-21T09:17:03;21.50;99.90
13798;DHT22;6970;51.340;3.240;2023-05-21T09:19:34;21.70;99.90
13798;DHT22;6970;51.340;3.240;2023-05-21T09:22:04;21.80;99.90
13798;DHT22;6970;51.340;3.240;2023-05-21T09:24:38;21.80;99.90
13798;DHT22;6970;51.340;3.240;2023-05-21T09:27:06;21.70;99.90
13798;DHT22;6970;51.340;3.240;2023-05-21T09:29:35;21.80;99.90
13798;DHT22;6970;51.340;3.240;2023-05-21T09:32:05;21.90;99.90
13798;DHT22;6970;51.340;3.240;2023-05-21T09:34:35;22.00;99.90
13798;DHT22;6970;51.340;3.240;2023-05-21T09:37:05;21.90;99.90
13798;DHT22;6970;51.340;3.240;2023-05-21T09:39:51;21.80;99.90
13798;DHT22;6970;51.340;3.240;2023-05-21T09:42:21;21.80;99.90
13798;DHT22;6970;51.340;3.240;2023-05-21T09:44:48;21.80;99.90
13798;DHT22;6970;51.340;3.240;2023-05-21T09:47:18;21.90;99.90
13798;DHT22;6970;51.340;3.240;2023-05-21T09:49:49;21.90;99.90
13798;DHT22;6970;51.340;3.240;2023-05-21T09:52:23;21.90;99.90
13798;DHT22;6970;51.340;3.240;2023-05-21T09:54:57;21.90;99.90
13798;DHT22;6970;51.340;3.240;2023-05-21T09:57:25;21.60;99.90
13798;DHT22;6970;51.340;3.240;2023-05-21T09:59:54;21.20;99.90
13798;DHT22;6970;51.340;3.240;2023-05-21T10:02:22;21.00;99.90
13798;DHT22;6970;51.340;3.240;2023-05-21T10:04:51;20.80;99.90
13798;DHT22;6970;51.340;3.240;2023-05-21T10:07:21;20.90;99.90
13798;DHT22;6970;51.340;3.240;2023-05-21T10:09:56;21.30;99.90
13798;DHT22;6970;51.340;3.240;2023-05-21T10:12:26;21.80;99.90
13798;DHT22;6970;51.340;3.240;2023-05-21T10:15:02;22.10;99.90
13798;DHT22;6970;51.340;3.240;2023-05-21T10:17:30;22.40;99.90
13798;DHT22;6970;51.340;3.240;2023-05-21T10:20:01;22.40;99.90
13798;DHT22;6970;51.340;3.240;2023-05-21T10:22:31;22.30;99.90
13798;DHT22;6970;51.340;3.240;2023-05-21T10:25:02;22.00;99.90
13798;DHT22;6970;51.340;3.240;2023-05-21T10:27:31;21.60;99.90
13798;DHT22;6970;51.340;3.240;2023-05-21T10:30:05;21.30;99.90
13798;DHT22;6970;51.340;3.240;2023-05-21T10:32:33;20.90;99.90
13798;DHT22;6970;51.340;3.240;2023-05-21T10:35:01;20.50;99.90
13798;DHT22;6970;51.340;3.240;2023-05-21T10:37:30;20.30;99.90
13798;DHT22;6970;51.340;3.240;2023-05-21T10:40:00;20.10;99.90
13798;DHT22;6970;51.340;3.240;2023-05-21T10:51:26;20.20;99.90
13798;DHT22;6970;51.340;3.240;2023-05-21T10:56:52;20.50;99.90
13798;DHT22;6970;51.340;3.240;2023-05-21T10:59:29;20.70;99.90
13798;DHT22;6970;51.340;3.240;2023-05-21T11:02:02;20.90;99.90
13798;DHT22;6970;51.340;3.240;2023-05-21T11:04:31;21.00;99.90
13798;DHT22;6970;51.340;3.240;2023-05-21T11:07:01;21.20;99.90
13798;DHT22;6970;51.340;3.240;2023-05-21T11:09:29;21.30;99.90
13798;DHT22;6970;51.340;3.240;2023-05-21T11:11:57;21.40;99.90
13798;DHT22;6970;51.340;3.240;2023-05-21T11:14:28;21.50;99.90
13798;DHT22;6970;51.340;3.240;2023-05-21T11:17:02;21.40;99.90
13798;DHT22;6970;51.340;3.240;2023-05-21T11:19:45;21.30;99.90
13798;DHT22;6970;51.340;3.240;2023-05-21T11:22:28;21.10;99.90
13798;DHT22;6970;51.340;3.240;2023-05-21T11:24:59;21.00;99.90
13798;DHT22;6970;51.340;3.240;2023-05-21T11:27:35;20.90;99.90
13798;DHT22;6970;51.340;3.240;2023-05-21T11:38:18;20.20;99.90
13798;DHT22;6970;51.340;3.240;2023-05-21T11:40:52;20.20;99.90
13798;DHT22;6970;51.340;3.240;2023-05-21T11:43:25;20.10;99.90
13798;DHT22;6970;51.340;3.240;2023-05-21T11:45:55;19.90;99.90
13798;DHT22;6970;51.340;3.240;2023-05-21T11:48:27;19.60;99.90
13798;DHT22;6970;51.340;3.240;2023-05-21T11:50:58;19.50;99.90
13798;DHT22;6970;51.340;3.240;2023-05-21T11:53:29;19.30;99.90
13798;DHT22;6970;51.340;3.240;2023-05-21T11:55:57;19.10;99.90
13798;DHT22;6970;51.340;3.240;2023-05-21T11:58:30;19.10;99.90
13798;DHT22;6970;51.340;3.240;2023-05-21T12:01:00;19.00;99.90
13798;DHT22;6970;51.340;3.240;2023-05-21T12:03:33;19.00;99.90
13798;DHT22;6970;51.340;3.240;2023-05-21T12:06:04;19.00;99.90
13798;DHT22;6970;51.340;3.240;2023-05-21T12:08:32;19.10;99.90
13798;DHT22;6970;51.340;3.240;2023-05-21T12:11:00;19.30;99.90
13798;DHT22;6970;51.340;3.240;2023-05-21T12:13:30;19.40;99.90
13798;DHT22;6970;51.340;3.240;2023-05-21T12:15:58;19.60;99.90
13798;DHT22;6970;51.340;3.240;2023-05-21T12:18:26;19.70;99.90
13798;DHT22;6970;51.340;3.240;2023-05-21T12:20:59;19.80;99.90
13798;DHT22;6970;51.340;3.240;2023-05-21T12:23:26;19.90;99.90
13798;DHT22;6970;51.340;3.240;2023-05-21T12:25:56;19.90;99.90
13798;DHT22;6970;51.340;3.240;2023-05-21T12:28:28;20.00;99.90
13798;DHT22;6970;51.340;3.240;2023-05-21T12:30:55;20.10;99.90
13798;DHT22;6970;51.340;3.240;2023-05-21T12:33:23;20.10;99.90
13798;DHT22;6970;51.340;3.240;2023-05-21T12:35:53;20.10;99.90
13798;DHT22;6970;51.340;3.240;2023-05-21T12:38:23;20.00;99.90
13798;DHT22;6970;51.340;3.240;2023-05-21T12:40:53;20.00;99.90
13798;DHT22;6970;51.340;3.240;2023-05-21T12:43:23;20.00;99.90
13798;DHT22;6970;51.340;3.240;2023-05-21T12:45:52;20.00;99.90
13798;DHT22;6970;51.340;3.240;2023-05-21T12:48:19;20.00;99.90
13798;DHT22;6970;51.340;3.240;2023-05-21T12:50:46;20.00;99.90
13798;DHT22;6970;51.340;3.240;2023-05-21T12:53:16;20.00;99.90
13798;DHT22;6970;51.340;3.240;2023-05-21T12:55:44;19.90;99.90
13798;DHT22;6970;51.340;3.240;2023-05-21T12:58:13;19.90;99.90
13798;DHT22;6970;51.340;3.240;2023-05-21T13:00:41;19.80;99.90
13798;DHT22;6970;51.340;3.240;2023-05-21T13:03:09;19.80;99.90
13798;DHT22;6970;51.340;3.240;2023-05-21T13:05:39;19.80;99.90
13798;DHT22;6970;51.340;3.240;2023-05-21T13:08:09;19.70;99.90
13798;DHT22;6970;51.340;3.240;2023-05-21T13:10:40;19.70;99.90
13798;DHT22;6970;51.340;3.240;2023-05-21T13:13:09;19.60;99.90
13798;DHT22;6970;51.340;3.240;2023-05-21T13:15:45;19.50;99.90
13798;DHT22;6970;51.340;3.240;2023-05-21T13:18:12;19.60;99.90
13798;DHT22;6970;51.340;3.240;2023-05-21T13:20:43;19.60;99.90
13798;DHT22;6970;51.340;3.240;2023-05-21T13:23:10;19.70;99.90
13798;DHT22;6970;51.340;3.240;2023-05-21T13:25:38;19.70;99.90
13798;DHT22;6970;51.340;3.240;2023-05-21T13:28:05;19.80;99.90
13798;DHT22;6970;51.340;3.240;2023-05-21T13:30:34;19.70;99.90
13798;DHT22;6970;51.340;3.240;2023-05-21T13:33:02;19.60;99.90
13798;DHT22;6970;51.340;3.240;2023-05-21T13:35:29;19.60;99.90
13798;DHT22;6970;51.340;3.240;2023-05-21T13:37:57;19.50;99.90
13798;DHT22;6970;51.340;3.240;2023-05-21T13:40:24;19.50;99.90
13798;DHT22;6970;51.340;3.240;2023-05-21T13:42:51;19.60;99.90
13798;DHT22;6970;51.340;3.240;2023-05-21T13:45:27;19.50;99.90
13798;DHT22;6970;51.340;3.240;2023-05-21T13:47:56;19.50;99.90
13798;DHT22;6970;51.340;3.240;2023-05-21T13:50:27;19.50;99.90
13798;DHT22;6970;51.340;3.240;2023-05-21T13:52:56;19.40;99.90
13798;DHT22;6970;51.340;3.240;2023-05-21T13:55:23;19.50;99.90
13798;DHT22;6970;51.340;3.240;2023-05-21T13:57:53;19.40;99.90
13798;DHT22;6970;51.340;3.240;2023-05-21T14:00:20;19.30;99.90
13798;DHT22;6970;51.340;3.240;2023-05-21T14:02:50;19.10;99.90
13798;DHT22;6970;51.340;3.240;2023-05-21T14:05:21;19.10;99.90
13798;DHT22;6970;51.340;3.240;2023-05-21T14:07:48;19.10;99.90
13798;DHT22;6970;51.340;3.240;2023-05-21T14:10:20;19.00;99.90
13798;DHT22;6970;51.340;3.240;2023-05-21T14:12:47;18.90;99.90
13798;DHT22;6970;51.340;3.240;2023-05-21T14:15:14;18.90;99.90
13798;DHT22;6970;51.340;3.240;2023-05-21T14:17:41;18.90;99.90
13798;DHT22;6970;51.340;3.240;2023-05-21T14:20:14;18.80;99.90
13798;DHT22;6970;51.340;3.240;2023-05-21T14:22:41;18.80;99.90
13798;DHT22;6970;51.340;3.240;2023-05-21T14:25:09;18.70;99.90
13798;DHT22;6970;51.340;3.240;2023-05-21T14:27:36;18.60;99.90
13798;DHT22;6970;51.340;3.240;2023-05-21T14:30:04;18.60;99.90
13798;DHT22;6970;51.340;3.240;2023-05-21T14:32:32;18.50;99.90
13798;DHT22;6970;51.340;3.240;2023-05-21T14:34:59;18.50;99.90
13798;DHT22;6970;51.340;3.240;2023-05-21T14:37:27;18.50;99.90
13798;DHT22;6970;51.340;3.240;2023-05-21T14:39:57;18.40;99.90
13798;DHT22;6970;51.340;3.240;2023-05-21T14:42:25;18.40;99.90
13798;DHT22;6970;51.340;3.240;2023-05-21T14:44:52;18.50;99.90
13798;DHT22;6970;51.340;3.240;2023-05-21T14:47:22;18.50;99.90
13798;DHT22;6970;51.340;3.240;2023-05-21T14:49:50;18.40;99.90
13798;DHT22;6970;51.340;3.240;2023-05-21T14:52:20;18.20;99.90
13798;DHT22;6970;51.340;3.240;2023-05-21T14:54:47;18.20;99.90
13798;DHT22;6970;51.340;3.240;2023-05-21T14:57:16;18.20;99.90
13798;DHT22;6970;51.340;3.240;2023-05-21T14:59:45;18.20;99.90
13798;DHT22;6970;51.340;3.240;2023-05-21T15:02:14;18.00;99.90
13798;DHT22;6970;51.340;3.240;2023-05-21T15:04:44;17.80;99.90
13798;DHT22;6970;51.340;3.240;2023-05-21T15:07:15;17.60;99.90
13798;DHT22;6970;51.340;3.240;2023-05-21T15:09:43;17.30;99.90
13798;DHT22;6970;51.340;3.240;2023-05-21T15:12:11;17.20;99.90
13798;DHT22;6970;51.340;3.240;2023-05-21T15:14:39;17.00;99.90
13798;DHT22;6970;51.340;3.240;2023-05-21T15:17:06;16.90;99.90
13798;DHT22;6970;51.340;3.240;2023-05-21T15:19:36;16.80;99.90
13798;DHT22;6970;51.340;3.240;2023-05-21T15:22:03;16.90;99.90
13798;DHT22;6970;51.340;3.240;2023-05-21T15:24:31;16.90;99.90
13798;DHT22;6970;51.340;3.240;2023-05-21T15:26:58;17.00;99.90
13798;DHT22;6970;51.340;3.240;2023-05-21T15:29:28;17.00;99.90
13798;DHT22;6970;51.340;3.240;2023-05-21T15:31:55;17.10;99.90
13798;DHT22;6970;51.340;3.240;2023-05-21T15:34:22;17.10;99.90
13798;DHT22;6970;51.340;3.240;2023-05-21T15:36:49;17.00;99.90
13798;DHT22;6970;51.340;3.240;2023-05-21T15:39:16;16.90;99.90
13798;DHT22;6970;51.340;3.240;2023-05-21T15:41:43;16.80;99.90
13798;DHT22;6970;51.340;3.240;2023-05-21T15:44:10;16.80;99.90
13798;DHT22;6970;51.340;3.240;2023-05-21T15:46:40;16.80;99.90
13798;DHT22;6970;51.340;3.240;2023-05-21T15:49:07;16.80;99.90
13798;DHT22;6970;51.340;3.240;2023-05-21T15:51:34;16.80;99.90
13798;DHT22;6970;51.340;3.240;2023-05-21T15:54:02;16.70;99.90
13798;DHT22;6970;51.340;3.240;2023-05-21T15:56:29;16.60;99.90
13798;DHT22;6970;51.340;3.240;2023-05-21T15:58:56;16.60;99.90
13798;DHT22;6970;51.340;3.240;2023-05-21T16:01:27;16.50;99.90
13798;DHT22;6970;51.340;3.240;2023-05-21T16:03:57;16.50;99.90
13798;DHT22;6970;51.340;3.240;2023-05-21T16:06:25;16.50;99.90
13798;DHT22;6970;51.340;3.240;2023-05-21T16:08:57;16.50;99.90
13798;DHT22;6970;51.340;3.240;2023-05-21T16:11:27;16.50;99.90
13798;DHT22;6970;51.340;3.240;2023-05-21T16:13:57;16.50;99.90
13798;DHT22;6970;51.340;3.240;2023-05-21T16:16:24;16.50;99.90
13798;DHT22;6970;51.340;3.240;2023-05-21T16:18:52;16.50;99.90
13798;DHT22;6970;51.340;3.240;2023-05-21T16:21:19;16.50;99.90
13798;DHT22;6970;51.340;3.240;2023-05-21T16:23:46;16.60;99.90
13798;DHT22;6970;51.340;3.240;2023-05-21T16:26:16;16.60;99.90